sensor_id;sensor_type;location;lat;lon;timestamp;temperature;humidity
3380;DHT22;1703;51.964;7.642;2023-11-22T00:01:48;7.60;99.90
3380;DHT22;1703;51.964;7.642;2023-11-22T00:04:16;7.50;99.90
3380;DHT22;1703;51.964;7.642;2023-11-22T00:25:00;7.50;99.90
3380;DHT22;1703;51.964;7.642;2023-11-22T00:27:27;7.60;99.90
3380;DHT22;1703;51.964;7.642;2023-11-22T00:29:53;7.60;99.90
3380;DHT22;1703;51.964;7.642;2023-11-22T00:32:20;7.60;99.90
3380;DHT22;1703;51.964;7.642;2023-11-22T00:34:46;7.50;99.90
3380;DHT22;1703;51.964;7.642;2023-11-22T00:37:14;7.50;99.90
3380;DHT22;1703;51.964;7.642;2023-11-22T00:39:42;7.40;99.90
3380;DHT22;1703;51.964;7.642;2023-11-22T00:42:10;7.30;99.90
3380;DHT22;1703;51.964;7.642;2023-11-22T00:44:37;7.30;99.90
3380;DHT22;1703;51.964;7.642;2023-11-22T00:47:04;7.20;99.90
3380;DHT22;1703;51.964;7.642;2023-11-22T00:49:32;7.20;99.90
3380;DHT22;1703;51.964;7.642;2023-11-22T00:51:58;7.10;99.90
3380;DHT22;1703;51.964;7.642;2023-11-22T00:54:25;7.10;99.90
3380;DHT22;1703;51.964;7.642;2023-11-22T00:56:53;7.00;99.90
3380;DHT22;1703;51.964;7.642;2023-11-22T00:59:22;7.00;99.90
3380;DHT22;1703;51.964;7.642;2023-11-22T01:01:48;7.00;99.90
3380;DHT22;1703;51.964;7.642;2023-11-22T01:04:15;6.90;99.90
3380;DHT22;1703;51.964;7.642;2023-11-22T01:06:42;6.80;99.90
3380;DHT22;1703;51.964;7.642;2023-11-22T01:09:09;6.80;99.90
3380;DHT22;1703;51.964;7.642;2023-11-22T01:11:39;6.80;99.90
3380;DHT22;1703;51.964;7.642;2023-11-22T01:14:06;6.70;99.90
3380;DHT22;1703;51.964;7.642;2023-11-22T01:16:34;6.70;99.90
3380;DHT22;1703;51.964;7.642;2023-11-22T01:19:02;6.80;99.90
3380;DHT22;1703;51.964;7.642;2023-11-22T01:21:29;6.80;99.90
3380;DHT22;1703;51.964;7.642;2023-11-22T01:23:57;6.80;99.90
3380;DHT22;1703;51.964;7.642;2023-11-22T01:26:25;6.80;99.90
3380;DHT22;1703;51.964;7.642;2023-11-22T01:28:52;6.80;99.90
3380;DHT22;1703;51.964;7.642;2023-11-22T01:31:19;6.70;99.90
3380;DHT22;1703;51.964;7.642;2023-11-22T01:33:47;6.70;99.90
3380;DHT22;1703;51.964;7.642;2023-11-22T01:36:14;6.80;99.90
3380;DHT22;1703;51.964;7.642;2023-11-22T01:38:42;6.70;99.90
3380;DHT22;1703;51.964;7.642;2023-11-22T01:41:10;6.70;99.90
3380;DHT22;1703;51.964;7.642;2023-11-22T01:43:38;6.60;99.90
3380;DHT22;1703;51.964;7.642;2023-11-22T01:46:07;6.60;99.90
3380;DHT22;1703;51.964;7.642;2023-11-22T01:48:35;6.60;99.90
3380;DHT22;1703;51.964;7.642;2023-11-22T01:51:04;6.60;99.90
3380;DHT22;1703;51.964;7.642;2023-11-22T01:53:33;6.50;99.90
3380;DHT22;1703;51.964;7.642;2023-11-22T01:56:01;6.40;99.90
3380;DHT22;1703;51.964;7.642;2023-11-22T01:58:28;6.30;99.90
3380;DHT22;1703;51.964;7.642;2023-11-22T02:00:55;6.30;99.90
3380;DHT22;1703;51.964;7.642;2023-11-22T02:03:25;6.30;99.90
3380;DHT22;1703;51.964;7.642;2023-11-22T02:05:51;6.30;99.90
3380;DHT22;1703;51.964;7.642;2023-11-22T02:08:21;6.30;99.90
3380;DHT22;1703;51.964;7.642;2023-11-22T02:10:57;6.20;99.90
3380;DHT22;1703;51.964;7.642;2023-11-22T02:13:24;6.20;99.90
3380;DHT22;1703;51.964;7.642;2023-11-22T02:15:52;6.10;99.90
3380;DHT22;1703;51.964;7.642;2023-11-22T02:18:22;6.10;99.90
3380;DHT22;1703;51.964;7.642;2023-11-22T02:20:49;6.00;99.90
3380;DHT22;1703;51.964;7.642;2023-11-22T02:23:18;6.00;99.90
3380;DHT22;1703;51.964;7.642;2023-11-22T02:25:45;6.00;99.90
3380;DHT22;1703;51.964;7.642;2023-11-22T02:28:12;5.90;99.90
3380;DHT22;1703;51.964;7.642;2023-11-22T02:30:39;5.90;99.90
3380;DHT22;1703;51.964;7.642;2023-11-22T02:33:09;5.80;99.90
3380;DHT22;1703;51.964;7.642;2023-11-22T02:35:36;5.80;99.90
3380;DHT22;1703;51.964;7.642;2023-11-22T02:38:02;5.80;99.90
3380;DHT22;1703;51.964;7.642;2023-11-22T02:40:32;5.80;99.90
3380;DHT22;1703;51.964;7.642;2023-11-22T02:42:59;5.90;99.90
3380;DHT22;1703;51.964;7.642;2023-11-22T02:45:31;5.80;99.90
3380;DHT22;1703;51.964;7.642;2023-11-22T02:47:58;5.80;99.90
3380;DHT22;1703;51.964;7.642;2023-11-22T02:50:27;5.70;99.90
3380;DHT22;1703;51.964;7.642;2023-11-22T02:52:54;5.70;99.90
3380;DHT22;1703;51.964;7.642;2023-11-22T02:55:20;5.70;99.90
3380;DHT22;1703;51.964;7.642;2023-11-22T02:57:49;5.70;99.90
3380;DHT22;1703;51.964;7.642;2023-11-22T03:00:17;5.60;99.90
3380;DHT22;1703;51.964;7.642;2023-11-22T03:02:45;5.60;99.90
3380;DHT22;1703;51.964;7.642;2023-11-22T03:05:12;5.70;99.90
3380;DHT22;1703;51.964;7.642;2023-11-22T03:07:39;5.70;99.90
3380;DHT22;1703;51.964;7.642;2023-11-22T03:10:07;5.60;99.90
3380;DHT22;1703;51.964;7.642;2023-11-22T03:12:35;5.50;99.90
3380;DHT22;1703;51.964;7.642;2023-11-22T03:15:21;5.50;99.90
3380;DHT22;1703;51.964;7.642;2023-11-22T03:25:51;5.40;99.90
3380;DHT22;1703;51.964;7.642;2023-11-22T03:28:18;5.30;99.90
3380;DHT22;1703;51.964;7.642;2023-11-22T03:30:46;5.30;99.90
3380;DHT22;1703;51.964;7.642;2023-11-22T03:33:16;5.30;99.90
3380;DHT22;1703;51.964;7.642;2023-11-22T03:35:42;5.20;99.90
3380;DHT22;1703;51.964;7.642;2023-11-22T03:38:09;5.20;99.90
3380;DHT22;1703;51.964;7.642;2023-11-22T03:40:36;5.20;99.90
3380;DHT22;1703;51.964;7.642;2023-11-22T03:43:03;5.20;99.90
3380;DHT22;1703;51.964;7.642;2023-11-22T03:45:31;5.20;99.90
3380;DHT22;1703;51.964;7.642;2023-11-22T03:48:00;5.10;99.90
3380;DHT22;1703;51.964;7.642;2023-11-22T03:50:27;5.10;99.90
3380;DHT22;1703;51.964;7.642;2023-11-22T03:52:54;5.10;99.90
3380;DHT22;1703;51.964;7.642;2023-11-22T03:55:21;5.10;99.90
3380;DHT22;1703;51.964;7.642;2023-11-22T03:57:48;5.00;99.90
3380;DHT22;1703;51.964;7.642;2023-11-22T04:00:16;5.10;99.90
3380;DHT22;1703;51.964;7.642;2023-11-22T04:02:43;5.00;99.90
3380;DHT22;1703;51.964;7.642;2023-11-22T04:05:11;5.00;99.90
3380;DHT22;1703;51.964;7.642;2023-11-22T04:07:38;5.00;99.90
3380;DHT22;1703;51.964;7.642;2023-11-22T04:10:06;5.00;99.90
3380;DHT22;1703;51.964;7.642;2023-11-22T04:12:33;5.00;99.90
3380;DHT22;1703;51.964;7.642;2023-11-22T04:14:59;4.90;99.90
3380;DHT22;1703;51.964;7.642;2023-11-22T04:17:26;4.90;99.90
3380;DHT22;1703;51.964;7.642;2023-11-22T04:19:53;4.80;99.90
3380;DHT22;1703;51.964;7.642;2023-11-22T04:22:21;4.80;99.90
3380;DHT22;1703;51.964;7.642;2023-11-22T04:24:48;4.80;99.90
3380;DHT22;1703;51.964;7.642;2023-11-22T04:27:15;4.70;99.90
3380;DHT22;1703;51.964;7.642;2023-11-22T04:29:42;4.70;99.90
3380;DHT22;1703;51.964;7.642;2023-11-22T04:32:08;4.70;99.90
3380;DHT22;1703;51.964;7.642;2023-11-22T04:34:35;4.70;99.90
3380;DHT22;1703;51.964;7.642;2023-11-22T04:37:03;4.80;99.90
3380;DHT22;1703;51.964;7.642;2023-11-22T04:39:32;4.80;99.90
3380;DHT22;1703;51.964;7.642;2023-11-22T04:41:59;4.90;99.90
3380;DHT22;1703;51.964;7.642;2023-11-22T04:44:26;4.80;99.90
3380;DHT22;1703;51.964;7.642;2023-11-22T04:46:53;4.80;99.90
3380;DHT22;1703;51.964;7.642;2023-11-22T04:49:19;4.70;99.90
3380;DHT22;1703;51.964;7.642;2023-11-22T04:51:46;4.70;99.90
3380;DHT22;1703;51.964;7.642;2023-11-22T04:54:17;4.70;99.90
3380;DHT22;1703;51.964;7.642;2023-11-22T04:56:48;4.70;99.90
3380;DHT22;1703;51.964;7.642;2023-11-22T04:59:16;4.70;99.90
3380;DHT22;1703;51.964;7.642;2023-11-22T05:01:43;4.80;99.90
3380;DHT22;1703;51.964;7.642;2023-11-22T05:04:11;4.70;99.90
3380;DHT22;1703;51.964;7.642;2023-11-22T05:06:38;4.80;99.90
3380;DHT22;1703;51.964;7.642;2023-11-22T05:09:05;4.90;99.90
3380;DHT22;1703;51.964;7.642;2023-11-22T05:11:31;5.00;99.90
3380;DHT22;1703;51.964;7.642;2023-11-22T05:14:00;4.90;99.90
3380;DHT22;1703;51.964;7.642;2023-11-22T05:16:26;4.90;99.90
3380;DHT22;1703;51.964;7.642;2023-11-22T05:18:53;4.90;99.90
3380;DHT22;1703;51.964;7.642;2023-11-22T05:21:20;4.80;99.90
3380;DHT22;1703;51.964;7.642;2023-11-22T05:23:47;4.80;99.90
3380;DHT22;1703;51.964;7.642;2023-11-22T05:26:14;4.80;99.90
3380;DHT22;1703;51.964;7.642;2023-11-22T05:28:41;4.70;99.90
3380;DHT22;1703;51.964;7.642;2023-11-22T05:31:09;4.80;99.90
3380;DHT22;1703;51.964;7.642;2023-11-22T05:33:38;4.80;99.90
3380;DHT22;1703;51.964;7.642;2023-11-22T05:36:06;4.80;99.90
3380;DHT22;1703;51.964;7.642;2023-11-22T05:38:33;4.70;99.90
3380;DHT22;1703;51.964;7.642;2023-11-22T05:41:00;4.60;99.90
3380;DHT22;1703;51.964;7.642;2023-11-22T05:43:27;4.60;99.90
3380;DHT22;1703;51.964;7.642;2023-11-22T05:45:54;4.60;99.90
3380;DHT22;1703;51.964;7.642;2023-11-22T05:48:22;4.60;99.90
3380;DHT22;1703;51.964;7.642;2023-11-22T05:50:49;4.50;99.90
3380;DHT22;1703;51.964;7.642;2023-11-22T05:53:16;4.50;99.90
3380;DHT22;1703;51.964;7.642;2023-11-22T05:55:45;4.40;99.90
3380;DHT22;1703;51.964;7.642;2023-11-22T05:58:12;4.40;99.90
3380;DHT22;1703;51.964;7.642;2023-11-22T06:00:42;4.40;99.90
3380;DHT22;1703;51.964;7.642;2023-11-22T06:03:09;4.40;99.90
3380;DHT22;1703;51.964;7.642;2023-11-22T06:05:37;4.50;99.90
3380;DHT22;1703;51.964;7.642;2023-11-22T06:08:04;4.50;99.90
3380;DHT22;1703;51.964;7.642;2023-11-22T06:10:31;4.40;99.90
3380;DHT22;1703;51.964;7.642;2023-11-22T06:12:59;4.40;99.90
3380;DHT22;1703;51.964;7.642;2023-11-22T06:15:26;4.30;99.90
3380;DHT22;1703;51.964;7.642;2023-11-22T06:17:53;4.30;99.90
3380;DHT22;1703;51.964;7.642;2023-11-22T06:20:19;4.30;99.90
3380;DHT22;1703;51.964;7.642;2023-11-22T06:22:48;4.20;99.90
3380;DHT22;1703;51.964;7.642;2023-11-22T06:25:15;4.30;99.90
3380;DHT22;1703;51.964;7.642;2023-11-22T06:27:42;4.30;99.90
3380;DHT22;1703;51.964;7.642;2023-11-22T06:30:09;4.30;99.90
3380;DHT22;1703;51.964;7.642;2023-11-22T06:32:36;4.30;99.90
3380;DHT22;1703;51.964;7.642;2023-11-22T06:35:03;4.30;99.90
3380;DHT22;1703;51.964;7.642;2023-11-22T06:37:34;4.30;99.90
3380;DHT22;1703;51.964;7.642;2023-11-22T06:40:02;4.30;99.90
3380;DHT22;1703;51.964;7.642;2023-11-22T06:42:29;4.20;99.90
3380;DHT22;1703;51.964;7.642;2023-11-22T06:44:57;4.10;99.90
3380;DHT22;1703;51.964;7.642;2023-11-22T06:47:26;4.10;99.90
3380;DHT22;1703;51.964;7.642;2023-11-22T06:49:53;4.10;99.90
3380;DHT22;1703;51.964;7.642;2023-11-22T06:52:20;4.10;99.90
3380;DHT22;1703;51.964;7.642;2023-11-22T06:54:47;4.00;99.90
3380;DHT22;1703;51.964;7.642;2023-11-22T06:57:15;4.00;99.90
3380;DHT22;1703;51.964;7.642;2023-11-22T06:59:42;4.00;99.90
3380;DHT22;1703;51.964;7.642;2023-11-22T07:02:09;4.10;99.90
3380;DHT22;1703;51.964;7.642;2023-11-22T07:04:36;4.20;99.90
3380;DHT22;1703;51.964;7.642;2023-11-22T07:07:03;4.20;99.90
3380;DHT22;1703;51.964;7.642;2023-11-22T07:09:30;4.20;99.90
3380;DHT22;1703;51.964;7.642;2023-11-22T07:11:58;4.20;99.90
3380;DHT22;1703;51.964;7.642;2023-11-22T07:14:26;4.20;99.90
3380;DHT22;1703;51.964;7.642;2023-11-22T07:16:54;4.20;99.90
3380;DHT22;1703;51.964;7.642;2023-11-22T07:19:22;4.10;99.90
3380;DHT22;1703;51.964;7.642;2023-11-22T07:21:49;4.10;99.90
3380;DHT22;1703;51.964;7.642;2023-11-22T07:24:17;4.20;99.90
3380;DHT22;1703;51.964;7.642;2023-11-22T07:26:44;4.20;99.90
3380;DHT22;1703;51.964;7.642;2023-11-22T07:29:11;4.20;99.90
3380;DHT22;1703;51.964;7.642;2023-11-22T07:31:39;4.20;99.90
3380;DHT22;1703;51.964;7.642;2023-11-22T07:34:08;4.20;99.90
3380;DHT22;1703;51.964;7.642;2023-11-22T07:36:38;4.20;99.90
3380;DHT22;1703;51.964;7.642;2023-11-22T07:39:06;4.10;99.90
3380;DHT22;1703;51.964;7.642;2023-11-22T07:41:32;4.10;99.90
3380;DHT22;1703;51.964;7.642;2023-11-22T07:44:00;4.10;99.90
3380;DHT22;1703;51.964;7.642;2023-11-22T07:46:27;4.10;99.90
3380;DHT22;1703;51.964;7.642;2023-11-22T07:48:55;4.10;99.90
3380;DHT22;1703;51.964;7.642;2023-11-22T07:51:23;4.10;99.90
3380;DHT22;1703;51.964;7.642;2023-11-22T07:53:50;4.20;99.90
3380;DHT22;1703;51.964;7.642;2023-11-22T07:56:17;4.30;99.90
3380;DHT22;1703;51.964;7.642;2023-11-22T07:58:44;4.30;99.90
3380;DHT22;1703;51.964;7.642;2023-11-22T08:01:11;4.30;99.90
3380;DHT22;1703;51.964;7.642;2023-11-22T08:03:39;4.30;99.90
3380;DHT22;1703;51.964;7.642;2023-11-22T08:06:11;4.30;99.90
3380;DHT22;1703;51.964;7.642;2023-11-22T08:08:38;4.40;99.90
3380;DHT22;1703;51.964;7.642;2023-11-22T08:11:06;4.40;99.90
3380;DHT22;1703;51.964;7.642;2023-11-22T08:13:40;4.40;99.90
3380;DHT22;1703;51.964;7.642;2023-11-22T08:16:08;4.40;99.90
3380;DHT22;1703;51.964;7.642;2023-11-22T08:18:35;4.40;99.90
3380;DHT22;1703;51.964;7.642;2023-11-22T08:21:02;4.40;99.90
3380;DHT22;1703;51.964;7.642;2023-11-22T08:23:31;4.50;99.90
3380;DHT22;1703;51.964;7.642;2023-11-22T08:25:58;4.60;99.90
3380;DHT22;1703;51.964;7.642;2023-11-22T08:28:25;4.60;99.90
3380;DHT22;1703;51.964;7.642;2023-11-22T08:30:52;4.70;99.90
3380;DHT22;1703;51.964;7.642;2023-11-22T08:33:19;4.80;99.90
3380;DHT22;1703;51.964;7.642;2023-11-22T08:35:47;4.80;99.90
3380;DHT22;1703;51.964;7.642;2023-11-22T08:38:17;4.90;99.90
3380;DHT22;1703;51.964;7.642;2023-11-22T08:40:46;4.90;99.90
3380;DHT22;1703;51.964;7.642;2023-11-22T08:43:14;4.90;99.90
3380;DHT22;1703;51.964;7.642;2023-11-22T08:45:52;5.00;99.90
3380;DHT22;1703;51.964;7.642;2023-11-22T08:48:20;5.00;99.90
3380;DHT22;1703;51.964;7.642;2023-11-22T08:50:47;4.90;99.90
3380;DHT22;1703;51.964;7.642;2023-11-22T08:53:14;5.10;99.90
3380;DHT22;1703;51.964;7.642;2023-11-22T08:55:43;5.10;99.90
3380;DHT22;1703;51.964;7.642;2023-11-22T08:58:11;5.20;99.90
3380;DHT22;1703;51.964;7.642;2023-11-22T09:00:39;5.20;99.90
3380;DHT22;1703;51.964;7.642;2023-11-22T09:03:07;5.30;99.90
3380;DHT22;1703;51.964;7.642;2023-11-22T09:05:34;5.40;99.90
3380;DHT22;1703;51.964;7.642;2023-11-22T09:08:01;5.50;99.90
3380;DHT22;1703;51.964;7.642;2023-11-22T09:10:30;5.60;99.90
3380;DHT22;1703;51.964;7.642;2023-11-22T09:13:13;5.60;99.90
3380;DHT22;1703;51.964;7.642;2023-11-22T09:16:24;5.80;99.90
3380;DHT22;1703;51.964;7.642;2023-11-22T09:18:58;5.80;99.90
3380;DHT22;1703;51.964;7.642;2023-11-22T09:21:37;5.80;99.90
3380;DHT22;1703;51.964;7.642;2023-11-22T09:24:15;5.90;99.90
3380;DHT22;1703;51.964;7.642;2023-11-22T09:27:07;5.90;99.90
3380;DHT22;1703;51.964;7.642;2023-11-22T09:29:38;6.00;99.90
3380;DHT22;1703;51.964;7.642;2023-11-22T09:32:07;6.00;99.90
3380;DHT22;1703;51.964;7.642;2023-11-22T09:34:39;6.00;99.90
3380;DHT22;1703;51.964;7.642;2023-11-22T09:37:09;6.10;99.90
3380;DHT22;1703;51.964;7.642;2023-11-22T09:39:38;6.20;99.90
3380;DHT22;1703;51.964;7.642;2023-11-22T09:42:05;6.20;99.90
3380;DHT22;1703;51.964;7.642;2023-11-22T09:44:32;6.20;99.90
3380;DHT22;1703;51.964;7.642;2023-11-22T09:51:20;6.30;99.90
3380;DHT22;1703;51.964;7.642;2023-11-22T09:53:53;6.10;99.90
3380;DHT22;1703;51.964;7.642;2023-11-22T09:56:23;6.20;99.90
3380;DHT22;1703;51.964;7.642;2023-11-22T09:58:54;6.30;99.90
3380;DHT22;1703;51.964;7.642;2023-11-22T10:01:22;6.20;99.90
3380;DHT22;1703;51.964;7.642;2023-11-22T10:03:50;6.20;99.90
3380;DHT22;1703;51.964;7.642;2023-11-22T10:06:19;6.20;99.90
3380;DHT22;1703;51.964;7.642;2023-11-22T10:08:49;6.20;99.90
3380;DHT22;1703;51.964;7.642;2023-11-22T10:11:17;6.30;99.90
3380;DHT22;1703;51.964;7.642;2023-11-22T10:13:45;6.30;99.90
3380;DHT22;1703;51.964;7.642;2023-11-22T10:16:14;6.30;99.90
3380;DHT22;1703;51.964;7.642;2023-11-22T10:18:42;6.40;99.90
3380;DHT22;1703;51.964;7.642;2023-11-22T10:21:24;6.50;99.90
3380;DHT22;1703;51.964;7.642;2023-11-22T10:23:53;6.40;99.90
3380;DHT22;1703;51.964;7.642;2023-11-22T10:26:22;6.50;99.90
3380;DHT22;1703;51.964;7.642;2023-11-22T10:28:50;6.50;99.90
3380;DHT22;1703;51.964;7.642;2023-11-22T10:31:18;6.50;99.90
3380;DHT22;1703;51.964;7.642;2023-11-22T10:33:48;6.50;99.90
3380;DHT22;1703;51.964;7.642;2023-11-22T10:36:15;6.50;99.90
3380;DHT22;1703;51.964;7.642;2023-11-22T10:38:47;6.50;99.90
3380;DHT22;1703;51.964;7.642;2023-11-22T10:41:14;6.60;99.90
3380;DHT22;1703;51.964;7.642;2023-11-22T10:43:44;6.60;99.90
3380;DHT22;1703;51.964;7.642;2023-11-22T10:46:18;6.60;99.90
3380;DHT22;1703;51.964;7.642;2023-11-22T10:49:09;6.60;99.90
3380;DHT22;1703;51.964;7.642;2023-11-22T10:51:54;6.60;99.90
3380;DHT22;1703;51.964;7.642;2023-11-22T10:54:23;6.50;99.90
3380;DHT22;1703;51.964;7.642;2023-11-22T10:56:55;6.60;99.90
3380;DHT22;1703;51.964;7.642;2023-11-22T10:59:35;6.70;99.90
3380;DHT22;1703;51.964;7.642;2023-11-22T11:02:04;6.70;99.90
3380;DHT22;1703;51.964;7.642;2023-11-22T11:04:34;6.60;99.90
3380;DHT22;1703;51.964;7.642;2023-11-22T11:07:02;6.70;99.90
3380;DHT22;1703;51.964;7.642;2023-11-22T11:09:31;6.80;99.90
3380;DHT22;1703;51.964;7.642;2023-11-22T11:11:59;6.90;99.90
3380;DHT22;1703;51.964;7.642;2023-11-22T11:14:28;6.90;99.90
3380;DHT22;1703;51.964;7.642;2023-11-22T11:16:55;6.90;99.90
3380;DHT22;1703;51.964;7.642;2023-11-22T11:19:24;7.10;99.90
3380;DHT22;1703;51.964;7.642;2023-11-22T11:21:52;7.20;99.90
3380;DHT22;1703;51.964;7.642;2023-11-22T11:24:18;7.20;99.90
3380;DHT22;1703;51.964;7.642;2023-11-22T11:26:50;7.20;99.90
3380;DHT22;1703;51.964;7.642;2023-11-22T11:29:31;7.20;99.90
3380;DHT22;1703;51.964;7.642;2023-11-22T11:31:58;7.20;99.90
3380;DHT22;1703;51.964;7.642;2023-11-22T11:34:27;7.30;99.90
3380;DHT22;1703;51.964;7.642;2023-11-22T11:36:55;7.20;99.90
3380;DHT22;1703;51.964;7.642;2023-11-22T11:39:25;7.20;99.90
3380;DHT22;1703;51.964;7.642;2023-11-22T11:42:09;7.20;99.90
3380;DHT22;1703;51.964;7.642;2023-11-22T11:44:36;7.20;99.90
3380;DHT22;1703;51.964;7.642;2023-11-22T11:47:10;7.20;99.90
3380;DHT22;1703;51.964;7.642;2023-11-22T11:49:37;7.20;99.90
3380;DHT22;1703;51.964;7.642;2023-11-22T11:52:05;7.10;99.90
3380;DHT22;1703;51.964;7.642;2023-11-22T11:54:33;7.00;99.90
3380;DHT22;1703;51.964;7.642;2023-11-22T11:57:00;6.90;99.90
3380;DHT22;1703;51.964;7.642;2023-11-22T11:59:28;6.90;99.90
3380;DHT22;1703;51.964;7.642;2023-11-22T12:01:59;6.80;99.90
3380;DHT22;1703;51.964;7.642;2023-11-22T12:04:27;6.80;99.90
3380;DHT22;1703;51.964;7.642;2023-11-22T12:06:54;6.80;99.90
3380;DHT22;1703;51.964;7.642;2023-11-22T12:09:24;6.80;99.90
3380;DHT22;1703;51.964;7.642;2023-11-22T12:11:51;6.70;99.90
3380;DHT22;1703;51.964;7.642;2023-11-22T12:14:19;6.80;99.90
3380;DHT22;1703;51.964;7.642;2023-11-22T12:16:49;6.70;99.90
3380;DHT22;1703;51.964;7.642;2023-11-22T12:19:23;6.80;99.90
3380;DHT22;1703;51.964;7.642;2023-11-22T12:21:50;6.70;99.90
3380;DHT22;1703;51.964;7.642;2023-11-22T12:24:17;6.60;99.90
3380;DHT22;1703;51.964;7.642;2023-11-22T12:26:55;6.60;99.90
3380;DHT22;1703;51.964;7.642;2023-11-22T12:29:23;6.60;99.90
3380;DHT22;1703;51.964;7.642;2023-11-22T12:32:04;6.60;99.90
3380;DHT22;1703;51.964;7.642;2023-11-22T12:34:44;6.70;99.90
3380;DHT22;1703;51.964;7.642;2023-11-22T12:37:12;6.70;99.90
3380;DHT22;1703;51.964;7.642;2023-11-22T12:39:42;6.70;99.90
3380;DHT22;1703;51.964;7.642;2023-11-22T12:42:12;6.80;99.90
3380;DHT22;1703;51.964;7.642;2023-11-22T12:47:39;6.80;99.90
3380;DHT22;1703;51.964;7.642;2023-11-22T12:50:28;6.80;99.90
3380;DHT22;1703;51.964;7.642;2023-11-22T12:53:10;6.90;99.90
3380;DHT22;1703;51.964;7.642;2023-11-22T12:55:42;6.90;99.90
3380;DHT22;1703;51.964;7.642;2023-11-22T12:58:10;6.90;99.90
3380;DHT22;1703;51.964;7.642;2023-11-22T13:00:38;6.80;99.90
3380;DHT22;1703;51.964;7.642;2023-11-22T13:03:07;6.80;99.90
3380;DHT22;1703;51.964;7.642;2023-11-22T13:05:38;6.90;99.90
3380;DHT22;1703;51.964;7.642;2023-11-22T13:08:14;6.90;99.90
3380;DHT22;1703;51.964;7.642;2023-11-22T13:10:46;7.00;99.90
3380;DHT22;1703;51.964;7.642;2023-11-22T13:13:21;7.20;99.90
3380;DHT22;1703;51.964;7.642;2023-11-22T13:16:00;7.30;99.90
3380;DHT22;1703;51.964;7.642;2023-11-22T13:18:28;7.40;99.90
3380;DHT22;1703;51.964;7.642;2023-11-22T13:20:55;7.30;99.90
3380;DHT22;1703;51.964;7.642;2023-11-22T13:23:24;7.30;99.90
3380;DHT22;1703;51.964;7.642;2023-11-22T13:25:58;7.10;99.90
3380;DHT22;1703;51.964;7.642;2023-11-22T13:28:26;7.00;99.90
3380;DHT22;1703;51.964;7.642;2023-11-22T13:30:53;7.10;99.90
3380;DHT22;1703;51.964;7.642;2023-11-22T13:33:20;7.10;99.90
3380;DHT22;1703;51.964;7.642;2023-11-22T13:35:48;7.10;99.90
3380;DHT22;1703;51.964;7.642;2023-11-22T13:38:17;7.20;99.90
3380;DHT22;1703;51.964;7.642;2023-11-22T13:40:44;7.30;99.90
3380;DHT22;1703;51.964;7.642;2023-11-22T13:43:12;7.20;99.90
3380;DHT22;1703;51.964;7.642;2023-11-22T13:45:39;7.30;99.90
3380;DHT22;1703;51.964;7.642;2023-11-22T13:48:07;7.30;99.90
3380;DHT22;1703;51.964;7.642;2023-11-22T13:50:36;7.40;99.90
3380;DHT22;1703;51.964;7.642;2023-11-22T13:53:04;7.40;99.90
3380;DHT22;1703;51.964;7.642;2023-11-22T13:55:31;7.30;99.90
3380;DHT22;1703;51.964;7.642;2023-11-22T13:57:59;7.40;99.90
3380;DHT22;1703;51.964;7.642;2023-11-22T14:00:40;7.40;99.90
3380;DHT22;1703;51.964;7.642;2023-11-22T14:03:31;7.40;99.90
3380;DHT22;1703;51.964;7.642;2023-11-22T14:06:15;7.30;99.90
3380;DHT22;1703;51.964;7.642;2023-11-22T14:09:15;7.30;99.90
3380;DHT22;1703;51.964;7.642;2023-11-22T14:11:51;7.30;99.90
3380;DHT22;1703;51.964;7.642;2023-11-22T14:14:21;7.20;99.90
3380;DHT22;1703;51.964;7.642;2023-11-22T14:16:52;7.20;99.90
3380;DHT22;1703;51.964;7.642;2023-11-22T14:19:33;7.20;99.90
3380;DHT22;1703;51.964;7.642;2023-11-22T14:22:06;7.30;99.90
3380;DHT22;1703;51.964;7.642;2023-11-22T14:24:38;7.10;99.90
3380;DHT22;1703;51.964;7.642;2023-11-22T14:27:08;7.00;99.90
3380;DHT22;1703;51.964;7.642;2023-11-22T14:29:35;7.10;99.90
3380;DHT22;1703;51.964;7.642;2023-11-22T14:32:03;7.10;99.90
3380;DHT22;1703;51.964;7.642;2023-11-22T14:34:30;7.10;99.90
3380;DHT22;1703;51.964;7.642;2023-11-22T14:36:56;7.10;99.90
3380;DHT22;1703;51.964;7.642;2023-11-22T14:39:23;7.00;99.90
3380;DHT22;1703;51.964;7.642;2023-11-22T14:42:31;7.00;99.90
3380;DHT22;1703;51.964;7.642;2023-11-22T14:45:13;7.00;99.90
3380;DHT22;1703;51.964;7.642;2023-11-22T14:47:40;7.10;99.90
3380;DHT22;1703;51.964;7.642;2023-11-22T14:50:10;7.00;99.90
3380;DHT22;1703;51.964;7.642;2023-11-22T14:52:40;7.00;99.90
3380;DHT22;1703;51.964;7.642;2023-11-22T14:55:07;7.00;99.90
3380;DHT22;1703;51.964;7.642;2023-11-22T14:57:38;7.00;99.90
3380;DHT22;1703;51.964;7.642;2023-11-22T15:00:07;6.90;99.90
3380;DHT22;1703;51.964;7.642;2023-11-22T15:02:38;6.90;99.90
3380;DHT22;1703;51.964;7.642;2023-11-22T15:05:06;6.90;99.90
3380;DHT22;1703;51.964;7.642;2023-11-22T15:07:34;6.80;99.90
3380;DHT22;1703;51.964;7.642;2023-11-22T15:10:04;6.90;99.90
3380;DHT22;1703;51.964;7.642;2023-11-22T15:12:32;6.80;99.90
3380;DHT22;1703;51.964;7.642;2023-11-22T15:15:15;6.80;99.90
3380;DHT22;1703;51.964;7.642;2023-11-22T15:17:53;6.80;99.90
3380;DHT22;1703;51.964;7.642;2023-11-22T15:20:23;6.80;99.90
3380;DHT22;1703;51.964;7.642;2023-11-22T15:22:50;6.80;99.90
3380;DHT22;1703;51.964;7.642;2023-11-22T15:25:17;6.80;99.90
3380;DHT22;1703;51.964;7.642;2023-11-22T15:27:44;6.80;99.90
3380;DHT22;1703;51.964;7.642;2023-11-22T15:30:12;6.90;99.90
3380;DHT22;1703;51.964;7.642;2023-11-22T15:32:39;6.90;99.90
3380;DHT22;1703;51.964;7.642;2023-11-22T15:35:06;6.90;99.90
3380;DHT22;1703;51.964;7.642;2023-11-22T15:37:34;6.80;99.90
3380;DHT22;1703;51.964;7.642;2023-11-22T15:40:01;6.80;99.90
3380;DHT22;1703;51.964;7.642;2023-11-22T15:42:31;6.80;99.90
3380;DHT22;1703;51.964;7.642;2023-11-22T15:44:58;6.80;99.90
3380;DHT22;1703;51.964;7.642;2023-11-22T15:47:26;6.80;99.90
3380;DHT22;1703;51.964;7.642;2023-11-22T15:49:53;6.80;99.90
3380;DHT22;1703;51.964;7.642;2023-11-22T15:52:20;6.80;99.90
3380;DHT22;1703;51.964;7.642;2023-11-22T15:54:47;6.80;99.90
3380;DHT22;1703;51.964;7.642;2023-11-22T15:57:14;6.80;99.90
3380;DHT22;1703;51.964;7.642;2023-11-22T15:59:41;6.80;99.90
3380;DHT22;1703;51.964;7.642;2023-11-22T16:02:09;6.70;99.90
3380;DHT22;1703;51.964;7.642;2023-11-22T16:04:37;6.70;99.90
3380;DHT22;1703;51.964;7.642;2023-11-22T16:07:04;6.70;99.90
3380;DHT22;1703;51.964;7.642;2023-11-22T16:09:31;6.70;99.90
3380;DHT22;1703;51.964;7.642;2023-11-22T16:11:58;6.70;99.90
3380;DHT22;1703;51.964;7.642;2023-11-22T16:14:25;6.70;99.90
3380;DHT22;1703;51.964;7.642;2023-11-22T16:16:52;6.70;99.90
3380;DHT22;1703;51.964;7.642;2023-11-22T16:19:19;6.70;99.90
3380;DHT22;1703;51.964;7.642;2023-11-22T16:21:47;6.70;99.90
3380;DHT22;1703;51.964;7.642;2023-11-22T16:24:14;6.70;99.90
3380;DHT22;1703;51.964;7.642;2023-11-22T16:26:41;6.70;99.90
3380;DHT22;1703;51.964;7.642;2023-11-22T16:29:08;6.80;99.90
3380;DHT22;1703;51.964;7.642;2023-11-22T16:31:35;6.70;99.90
3380;DHT22;1703;51.964;7.642;2023-11-22T16:34:06;6.70;99.90
3380;DHT22;1703;51.964;7.642;2023-11-22T16:36:33;6.70;99.90
3380;DHT22;1703;51.964;7.642;2023-11-22T16:39:01;6.80;99.90
3380;DHT22;1703;51.964;7.642;2023-11-22T16:41:29;6.80;99.90
3380;DHT22;1703;51.964;7.642;2023-11-22T16:43:56;6.90;99.90
3380;DHT22;1703;51.964;7.642;2023-11-22T16:46:23;6.80;99.90
3380;DHT22;1703;51.964;7.642;2023-11-22T16:48:50;6.80;99.90
3380;DHT22;1703;51.964;7.642;2023-11-22T16:51:19;6.80;99.90
3380;DHT22;1703;51.964;7.642;2023-11-22T16:53:46;6.80;99.90
3380;DHT22;1703;51.964;7.642;2023-11-22T16:56:15;6.80;99.90
3380;DHT22;1703;51.964;7.642;2023-11-22T16:58:51;6.80;99.90
3380;DHT22;1703;51.964;7.642;2023-11-22T17:01:18;6.70;99.90
3380;DHT22;1703;51.964;7.642;2023-11-22T17:03:46;6.80;99.90